createdAt,value
2022-11-10T00:02:14.072Z,83.40
2022-11-10T00:07:17.274Z,83.20
2022-11-10T00:12:22.269Z,83.20
2022-11-10T00:17:25.422Z,83.40
2022-11-10T00:22:28.589Z,83.60
2022-11-10T00:27:33.374Z,83.20
2022-11-10T00:32:36.617Z,83.20
2022-11-10T00:37:39.761Z,83.50
2022-11-10T00:42:44.401Z,83.30
2022-11-10T00:47:47.821Z,82.80
2022-11-10T00:52:51.076Z,83.40
2022-11-10T00:57:55.657Z,83.00
2022-11-10T01:02:59.030Z,83.20
2022-11-10T01:08:02.238Z,83.30
2022-11-10T01:13:06.841Z,83.40
2022-11-10T01:18:10.170Z,83.30
2022-11-10T01:23:13.446Z,83.20
2022-11-10T01:28:18.100Z,83.10
2022-11-10T01:33:21.559Z,83.50
2022-11-10T01:38:25.018Z,83.10
2022-11-10T01:43:30.269Z,83.30
2022-11-10T01:48:35.229Z,83.20
2022-11-10T01:53:39.863Z,83.30
2022-11-10T01:58:46.130Z,83.40
2022-11-10T02:03:50.695Z,83.60
2022-11-10T02:08:54.360Z,83.10
2022-11-10T02:13:59.144Z,83.30
2022-11-10T02:19:12.928Z,83.30
2022-11-10T02:24:18.091Z,83.00
2022-11-10T02:29:21.626Z,83.20
2022-11-10T02:34:24.781Z,83.00
2022-11-10T02:39:29.416Z,83.10
2022-11-10T02:44:32.673Z,83.50
2022-11-10T02:49:35.833Z,83.30
2022-11-10T02:54:40.490Z,83.20
2022-11-10T02:59:43.813Z,83.10
2022-11-10T03:04:46.975Z,83.20
2022-11-10T03:09:51.844Z,83.30
2022-11-10T03:14:55.004Z,83.40
2022-11-10T03:19:58.232Z,83.30
2022-11-10T03:25:02.807Z,83.20
2022-11-10T03:30:06.772Z,83.30
2022-11-10T03:35:11.223Z,83.30
2022-11-10T03:40:16.050Z,83.10
2022-11-10T03:45:19.244Z,83.10
2022-11-10T03:50:22.440Z,83.10
2022-11-10T03:55:26.993Z,83.20
2022-11-10T04:00:30.497Z,83.40
2022-11-10T04:05:51.202Z,83.00
2022-11-10T04:10:55.817Z,83.20
2022-11-10T04:15:59.055Z,83.20
2022-11-10T04:21:03.437Z,83.30
2022-11-10T04:26:26.198Z,83.40
2022-11-10T04:31:30.486Z,83.20
2022-11-10T04:36:34.864Z,83.10
2022-11-10T04:41:39.687Z,83.40
2022-11-10T04:46:44.349Z,83.20
2022-11-10T04:51:47.533Z,83.10
2022-11-10T04:56:52.227Z,83.40
2022-11-10T05:01:55.914Z,83.00
2022-11-10T05:06:59.216Z,83.60
2022-11-10T05:12:03.729Z,83.30
2022-11-10T05:17:06.951Z,83.20
2022-11-10T05:22:10.192Z,83.20
2022-11-10T05:27:14.806Z,83.20
2022-11-10T05:32:18.052Z,83.10
2022-11-10T05:37:21.284Z,82.90
2022-11-10T05:42:26.247Z,83.30
2022-11-10T05:47:29.731Z,83.40
2022-11-10T05:52:32.919Z,83.30
2022-11-10T05:57:37.621Z,83.30
2022-11-10T06:02:40.847Z,83.10
2022-11-10T06:07:44.098Z,83.10
2022-11-10T06:12:48.807Z,83.00
2022-11-10T06:17:52.377Z,83.00
2022-11-10T06:23:00.048Z,83.20
2022-11-10T06:28:04.847Z,83.20
2022-11-10T06:33:08.133Z,83.00
2022-11-10T06:38:12.096Z,83.10
2022-11-10T06:43:16.729Z,83.30
2022-11-10T06:48:19.967Z,83.20
2022-11-10T06:53:26.937Z,83.10
2022-11-10T06:58:31.829Z,83.40
2022-11-10T07:03:38.788Z,83.00
2022-11-10T07:08:47.660Z,82.90
2022-11-10T07:13:52.279Z,83.20
2022-11-10T07:18:55.394Z,83.00
2022-11-10T07:23:58.667Z,83.20
2022-11-10T07:29:03.306Z,82.90
2022-11-10T07:34:06.489Z,83.30
2022-11-10T07:39:09.730Z,83.10
2022-11-10T07:44:14.362Z,83.50
2022-11-10T07:49:17.626Z,83.40
2022-11-10T07:54:21.366Z,83.30
2022-11-10T07:59:26.121Z,83.10
2022-11-10T08:04:29.342Z,83.30
2022-11-10T08:09:32.554Z,83.30
2022-11-10T08:14:37.215Z,83.00
2022-11-10T08:19:40.389Z,83.00
2022-11-10T08:24:43.617Z,82.90
2022-11-10T08:29:48.252Z,83.00
2022-11-10T08:34:51.418Z,83.40
2022-11-10T08:39:54.630Z,83.20
2022-11-10T08:44:59.177Z,83.10
2022-11-10T08:50:02.352Z,82.90
2022-11-10T08:55:05.825Z,83.30
2022-11-10T09:00:11.641Z,83.10
2022-11-10T09:05:14.845Z,82.80
2022-11-10T09:10:18.003Z,83.20
2022-11-10T09:15:22.697Z,82.90
2022-11-10T09:20:26.292Z,82.90
2022-11-10T09:25:29.607Z,83.00
2022-11-10T09:30:34.344Z,83.20
2022-11-10T09:35:37.640Z,83.10
2022-11-10T09:40:49.043Z,82.90
2022-11-10T09:45:55.055Z,82.80
2022-11-10T09:51:00.134Z,82.90
2022-11-10T09:56:04.470Z,82.90
2022-11-10T10:01:21.191Z,82.80
2022-11-10T10:06:24.838Z,83.00
2022-11-10T10:11:41.132Z,83.00
2022-11-10T10:16:48.971Z,82.90
2022-11-10T10:22:00.631Z,82.90
2022-11-10T10:27:06.486Z,82.70
2022-11-10T10:32:13.773Z,82.60
2022-11-10T10:37:23.421Z,82.80
2022-11-10T10:42:31.375Z,82.90
2022-11-10T10:47:39.379Z,83.20
2022-11-10T10:52:42.561Z,82.90
2022-11-10T10:57:51.497Z,83.10
2022-11-10T11:03:05.061Z,82.80
2022-11-10T11:08:18.261Z,83.10
2022-11-10T11:13:22.838Z,82.90
2022-11-10T11:18:28.141Z,83.10
2022-11-10T11:23:36.682Z,82.90
2022-11-10T11:28:45.085Z,82.70
2022-11-10T11:33:51.337Z,82.90
2022-11-10T11:38:56.540Z,82.90
2022-11-10T11:44:11.424Z,82.90
2022-11-10T11:49:30.622Z,82.80
2022-11-10T11:54:40.322Z,82.80
2022-11-10T11:59:51.930Z,82.60
2022-11-10T12:05:02.935Z,82.70
2022-11-10T12:10:09.580Z,82.90
2022-11-10T12:15:19.357Z,82.80
2022-11-10T12:20:29.010Z,82.50
2022-11-10T12:25:35.619Z,82.80
2022-11-10T12:30:39.889Z,82.80
2022-11-10T12:35:45.455Z,82.70
2022-11-10T12:40:50.083Z,82.70
2022-11-10T12:45:55.883Z,82.80
2022-11-10T12:51:03.406Z,82.70
2022-11-10T12:56:08.560Z,82.90
2022-11-10T13:01:15.411Z,82.70
2022-11-10T13:06:27.546Z,82.80
2022-11-10T13:11:32.332Z,82.70
2022-11-10T13:16:49.753Z,82.80
2022-11-10T13:22:10.200Z,82.60
2022-11-10T13:27:34.769Z,82.80
2022-11-10T13:32:38.051Z,82.50
2022-11-10T13:37:50.880Z,82.90
2022-11-10T13:43:09.121Z,82.60
2022-11-10T13:48:21.330Z,82.80
2022-11-10T13:53:31.796Z,82.50
2022-11-10T13:58:35.650Z,83.00
2022-11-10T14:04:00.541Z,82.70
2022-11-10T14:09:07.453Z,83.00
2022-11-10T14:14:13.489Z,82.90
2022-11-10T14:19:26.014Z,82.80
2022-11-10T14:24:32.611Z,83.10
2022-11-10T14:29:38.649Z,82.90
2022-11-10T14:34:46.203Z,82.90
2022-11-10T14:39:52.378Z,82.90
2022-11-10T14:45:09.193Z,83.00
2022-11-10T14:50:18.536Z,83.00
2022-11-10T14:55:24.941Z,82.90
2022-11-10T15:00:28.993Z,83.00
2022-11-10T15:05:32.673Z,83.30
2022-11-10T15:10:47.299Z,83.00
2022-11-10T15:15:50.472Z,83.20
2022-11-10T15:21:03.408Z,83.10
2022-11-10T15:26:15.450Z,82.90
2022-11-10T15:31:23.585Z,83.20
2022-11-10T15:36:32.244Z,83.10
2022-11-10T15:41:37.429Z,83.50
2022-11-10T15:46:40.592Z,83.30
2022-11-10T15:51:43.717Z,83.30
2022-11-10T15:56:48.244Z,83.10
2022-11-10T16:01:51.815Z,83.40
2022-11-10T16:06:57.239Z,83.20
2022-11-10T16:12:01.765Z,83.10
2022-11-10T16:17:04.897Z,83.40
2022-11-10T16:22:10.715Z,83.40
2022-11-10T16:27:15.865Z,83.40
2022-11-10T16:32:19.044Z,83.40
2022-11-10T16:37:22.396Z,83.40
2022-11-10T16:42:26.922Z,83.40
2022-11-10T16:47:31.181Z,83.10
2022-11-10T16:52:34.983Z,83.40
2022-11-10T16:57:40.187Z,83.20
2022-11-10T17:02:48.783Z,83.50
2022-11-10T17:07:54.784Z,83.40
2022-11-10T17:12:59.303Z,83.70
2022-11-10T17:18:04.740Z,83.50
2022-11-10T17:23:08.188Z,83.60
2022-11-10T17:28:13.274Z,83.30
2022-11-10T17:33:16.364Z,83.70
2022-11-10T17:38:22.321Z,83.40
2022-11-10T17:43:26.846Z,83.90
2022-11-10T17:48:29.981Z,83.80
2022-11-10T17:53:33.359Z,83.80
2022-11-10T17:58:37.881Z,83.90
2022-11-10T18:03:41.156Z,83.90
2022-11-10T18:08:44.357Z,83.50
2022-11-10T18:13:48.849Z,83.50
2022-11-10T18:18:51.955Z,83.80
2022-11-10T18:23:55.044Z,83.70
2022-11-10T18:28:59.544Z,83.90
2022-11-10T18:34:02.648Z,83.90
2022-11-10T18:39:05.736Z,83.70
2022-11-10T18:44:10.245Z,83.70
2022-11-10T18:49:13.469Z,84.00
2022-11-10T18:54:16.561Z,83.80
2022-11-10T18:59:21.035Z,83.80
2022-11-10T19:04:24.230Z,83.80
2022-11-10T19:09:27.326Z,83.80
2022-11-10T19:14:31.837Z,83.90
2022-11-10T19:19:34.946Z,83.90
2022-11-10T19:25:00.891Z,83.80
2022-11-10T19:30:02.557Z,83.80
2022-11-10T19:35:05.854Z,84.00
2022-11-10T19:40:09.740Z,84.20
2022-11-10T19:45:15.571Z,83.80
2022-11-10T19:50:18.709Z,83.80
2022-11-10T19:55:21.790Z,83.70
2022-11-10T20:00:26.359Z,83.70
2022-11-10T20:05:29.456Z,83.70
2022-11-10T20:10:32.551Z,83.80
2022-11-10T20:15:39.345Z,83.70
2022-11-10T20:20:42.428Z,84.00
2022-11-10T20:25:45.721Z,84.00
2022-11-10T20:30:50.267Z,84.10
2022-11-10T20:35:53.369Z,83.90
2022-11-10T20:41:02.573Z,83.90
2022-11-10T20:46:08.059Z,83.80
2022-11-10T20:51:11.866Z,83.90
2022-11-10T20:56:15.892Z,83.80
2022-11-10T21:01:21.241Z,83.90
2022-11-10T21:06:24.436Z,83.90
2022-11-10T21:11:45.073Z,84.10
2022-11-10T21:16:49.575Z,84.00
2022-11-10T21:21:53.829Z,83.50
2022-11-10T21:26:57.154Z,83.80
2022-11-10T21:32:01.689Z,83.80
2022-11-10T21:37:04.893Z,83.60
2022-11-10T21:42:07.976Z,83.70
2022-11-10T21:47:12.452Z,83.80
2022-11-10T21:52:15.540Z,83.70
2022-11-10T21:57:18.642Z,83.40
2022-11-10T22:02:23.245Z,83.80
2022-11-10T22:07:26.356Z,83.60
2022-11-10T22:12:46.774Z,84.00
2022-11-10T22:18:08.443Z,83.70
2022-11-10T22:23:11.717Z,83.60
2022-11-10T22:28:14.786Z,83.70
2022-11-10T22:33:28.298Z,83.70
2022-11-10T22:38:31.452Z,83.60
2022-11-10T22:43:51.906Z,83.50
2022-11-10T22:48:56.402Z,83.50
2022-11-10T22:53:59.701Z,83.10
2022-11-10T22:59:02.982Z,83.10
2022-11-10T23:04:07.580Z,83.20
2022-11-10T23:09:10.657Z,83.20
2022-11-10T23:14:13.851Z,83.50
2022-11-10T23:19:18.341Z,83.30
2022-11-10T23:24:24.658Z,83.20
2022-11-10T23:29:27.747Z,83.30
2022-11-10T23:34:32.226Z,83.30
2022-11-10T23:39:35.331Z,83.40
2022-11-10T23:44:38.422Z,82.90
2022-11-10T23:49:42.917Z,83.20
2022-11-10T23:54:46.044Z,83.20
2022-11-10T23:59:49.110Z,83.40
